»·PEaware :: N1752T KBUR-KLAS

N1752T :: KBUR-KLAS

FLIGHT INFORMATION

Flight Status: Arrived
Operator: Privately registered:
United States
More flights under this callsign
Pilot: Anonymous 20191 (20191)
Aircraft: PIPER PA-44 SEMINOLE
(PA44)
More flights by this aircraft type
Origin: KBUR Bob Hope-Burbank
United States
Destination: KLAS McCarran Intl
United States
More flights between these airports :: More routes between these airports
Route: +VNY3 DAG CRESO4
File this flight plan on PilotEdge
Remarks: I-5 Rating
Altitude:
(Current/Filed)
11,000ft
Speed:
(Current/Filed)
140kts
Departed: 03-Oct-18 03:18 PM
Arrived: 03-Oct-18 04:45 PM
Distance/Time
Traveled:
193nm/1:27
Distance/Time
To Go:
Arrived

Flight Plot

Page will automatically refresh every two minutes.

Flight plan parsing failed; only flown route is shown


Map Options




Map Legend


Flown Route
Filed Route
Departure Airport
Arrival Airport
Navaid (VOR, NDB)
Fix

Horizontal Profiles

Position Reports

Time Latitude Longitude Heading Altitude Ground
Speed
03-Oct-18 14:36 34.200203 -118.358746 263 722ft 0kts
03-Oct-18 14:37 34.200203 -118.358746 263 722ft 0kts
03-Oct-18 14:38 34.200203 -118.358746 263 722ft 0kts
03-Oct-18 14:39 34.200203 -118.358746 263 722ft 0kts
03-Oct-18 14:40 34.200203 -118.358746 263 722ft 0kts
03-Oct-18 14:41 34.200203 -118.358746 263 722ft 0kts
03-Oct-18 14:42 34.200203 -118.358746 263 722ft 0kts
03-Oct-18 14:43 34.200203 -118.358746 263 722ft 0kts
03-Oct-18 14:44 34.200203 -118.358746 263 722ft 0kts
03-Oct-18 14:45 34.200203 -118.358746 263 722ft 0kts
03-Oct-18 14:46 34.200203 -118.358746 263 722ft 0kts
03-Oct-18 14:47 34.200203 -118.358746 263 722ft 0kts
03-Oct-18 14:48 34.200203 -118.358746 263 722ft 0kts
03-Oct-18 14:49 34.200203 -118.358746 263 722ft 0kts
03-Oct-18 14:50 34.200203 -118.358746 263 722ft 0kts
03-Oct-18 14:51 34.200203 -118.358746 263 722ft 0kts
03-Oct-18 14:52 34.200203 -118.358746 263 722ft 0kts
03-Oct-18 14:53 34.200203 -118.358746 263 722ft 0kts
03-Oct-18 14:54 34.200203 -118.358746 263 722ft 0kts
03-Oct-18 14:55 34.200203 -118.358746 263 722ft 0kts
03-Oct-18 14:56 34.200203 -118.358746 263 722ft 0kts
03-Oct-18 14:57 34.200203 -118.358746 263 722ft 0kts
03-Oct-18 14:58 34.200203 -118.358746 263 722ft 0kts
03-Oct-18 14:59 34.200203 -118.358746 263 722ft 0kts
03-Oct-18 15:00 34.200203 -118.358746 263 722ft 0kts
03-Oct-18 15:01 34.200203 -118.358746 263 722ft 0kts
03-Oct-18 15:02 34.200203 -118.358746 263 722ft 0kts
03-Oct-18 15:03 34.200203 -118.358746 263 722ft 0kts
03-Oct-18 15:04 34.200203 -118.358746 263 722ft 0kts
03-Oct-18 15:05 34.200203 -118.358746 263 722ft 0kts
03-Oct-18 15:06 34.200203 -118.358746 263 722ft 0kts
03-Oct-18 15:07 34.200203 -118.358746 263 722ft 0kts
03-Oct-18 15:08 34.200203 -118.358746 263 722ft 0kts
03-Oct-18 15:09 34.200203 -118.358746 263 722ft 0kts
03-Oct-18 15:10 34.199883 -118.358130 1 719ft 3kts
03-Oct-18 15:11 34.202720 -118.358963 347 732ft 18kts
03-Oct-18 15:12 34.206961 -118.360140 347 748ft 14kts
03-Oct-18 15:13 34.210842 -118.361210 347 768ft 11kts
03-Oct-18 15:14 34.212036 -118.361337 44 770ft 0kts
03-Oct-18 15:15 34.212036 -118.361337 44 770ft 0kts
03-Oct-18 15:16 34.212036 -118.361337 44 770ft 0kts
03-Oct-18 15:17 34.212036 -118.361337 44 770ft 0kts
03-Oct-18 15:18 34.212036 -118.361337 44 770ft 0kts
03-Oct-18 15:19 34.212281 -118.360787 88 769ft 13kts
03-Oct-18 15:20 34.191765 -118.358732 218 1922ft 104kts
03-Oct-18 15:21 34.173608 -118.382166 226 3919ft 96kts
03-Oct-18 15:22 34.164045 -118.412881 316 5607ft 96kts
03-Oct-18 15:23 34.192438 -118.419582 340 7142ft 104kts
03-Oct-18 15:26 34.301667 -118.433599 352 6931ft 95kts
03-Oct-18 15:27 34.329234 -118.438085 351 8504ft 105kts
03-Oct-18 15:28 34.357640 -118.445844 334 10012ft 108kts
03-Oct-18 15:29 34.386625 -118.455750 32 11104ft 134kts
03-Oct-18 15:30 34.413316 -118.411987 54 11001ft 173kts
03-Oct-18 15:31 34.441851 -118.365495 50 11074ft 178kts
03-Oct-18 15:32 34.467201 -118.326351 53 11070ft 180kts
03-Oct-18 15:33 34.501228 -118.269459 53 11107ft 176kts
03-Oct-18 15:34 34.520705 -118.225624 71 11053ft 179kts
03-Oct-18 15:35 34.535673 -118.169334 71 11052ft 174kts
03-Oct-18 15:36 34.550895 -118.114072 71 10954ft 171kts
03-Oct-18 15:37 34.565220 -118.060832 74 11042ft 167kts
03-Oct-18 15:38 34.578705 -118.006447 71 11080ft 173kts
03-Oct-18 15:39 34.595247 -117.951013 71 11045ft 172kts
03-Oct-18 15:40 34.609047 -117.896650 73 11016ft 167kts
03-Oct-18 15:41 34.624419 -117.843241 70 11020ft 170kts
03-Oct-18 15:42 34.639727 -117.788301 71 11019ft 172kts
03-Oct-18 15:43 34.654783 -117.733185 71 11019ft 172kts
03-Oct-18 15:44 34.669844 -117.677802 71 11019ft 172kts
03-Oct-18 15:45 34.684859 -117.622453 71 11019ft 172kts
03-Oct-18 15:46 34.699813 -117.567218 71 11019ft 172kts
03-Oct-18 15:47 34.714775 -117.511840 71 11019ft 172kts
03-Oct-18 15:48 34.729729 -117.456377 71 11019ft 172kts
03-Oct-18 15:49 34.744607 -117.401083 71 11019ft 172kts
03-Oct-18 15:50 34.759469 -117.345739 72 11019ft 172kts
03-Oct-18 15:51 34.774325 -117.290308 72 11019ft 172kts
03-Oct-18 15:52 34.789191 -117.234715 72 11019ft 172kts
03-Oct-18 15:53 34.803874 -117.179701 72 11074ft 171kts
03-Oct-18 15:54 34.814517 -117.123326 82 11074ft 172kts
03-Oct-18 15:55 34.821217 -117.065357 82 11074ft 172kts
03-Oct-18 15:56 34.827893 -117.007669 81 11074ft 172kts
03-Oct-18 15:57 34.834593 -116.949845 81 11074ft 172kts
03-Oct-18 15:58 34.841301 -116.892049 81 11074ft 172kts
03-Oct-18 15:59 34.848027 -116.834168 81 11074ft 172kts
03-Oct-18 16:00 34.854740 -116.776461 81 11074ft 172kts
03-Oct-18 16:01 34.861484 -116.718589 81 11074ft 172kts
03-Oct-18 16:02 34.868240 -116.660697 81 11074ft 172kts
03-Oct-18 16:03 34.874984 -116.602977 81 11074ft 172kts
03-Oct-18 16:04 34.881760 -116.545076 81 11074ft 172kts
03-Oct-18 16:05 34.888525 -116.487348 81 11074ft 172kts
03-Oct-18 16:06 34.895322 -116.429439 81 11074ft 172kts
03-Oct-18 16:07 34.902125 -116.371541 81 11074ft 172kts
03-Oct-18 16:08 34.930922 -116.326228 47 11074ft 172kts
03-Oct-18 16:09 34.963004 -116.282926 48 11074ft 172kts
03-Oct-18 16:10 34.991810 -116.243323 48 11074ft 172kts
03-Oct-18 16:11 35.023506 -116.199576 48 11074ft 172kts
03-Oct-18 16:12 35.055213 -116.155741 48 11074ft 172kts
03-Oct-18 16:13 35.086964 -116.111785 48 11074ft 172kts
03-Oct-18 16:14 35.118482 -116.068096 48 11074ft 172kts
03-Oct-18 16:15 35.150177 -116.024104 48 11074ft 172kts
03-Oct-18 16:16 35.181822 -115.980130 48 11074ft 172kts
03-Oct-18 16:17 35.213435 -115.936143 48 11074ft 172kts
03-Oct-18 16:18 35.245094 -115.892034 48 11074ft 172kts
03-Oct-18 16:19 35.276764 -115.847853 48 11074ft 172kts
03-Oct-18 16:20 35.308384 -115.803686 48 11074ft 172kts
03-Oct-18 16:21 35.339891 -115.759618 48 11074ft 172kts
03-Oct-18 16:22 35.371532 -115.715307 48 11074ft 172kts
03-Oct-18 16:23 35.402982 -115.671204 48 11074ft 172kts
03-Oct-18 16:24 35.434329 -115.627193 48 11129ft 171kts
03-Oct-18 16:25 35.464240 -115.585143 48 11125ft 147kts
03-Oct-18 16:26 35.490010 -115.548873 48 11135ft 150kts
03-Oct-18 16:27 35.520149 -115.507248 47 11130ft 169kts
03-Oct-18 16:28 35.552317 -115.464105 47 11129ft 172kts
03-Oct-18 16:29 35.584611 -115.420738 47 11129ft 172kts
03-Oct-18 16:30 35.616915 -115.377297 47 11129ft 172kts
03-Oct-18 16:31 35.649147 -115.335310 22 11127ft 172kts
03-Oct-18 16:32 35.694838 -115.313589 21 10776ft 178kts
03-Oct-18 16:33 35.740848 -115.291843 21 10276ft 177kts
03-Oct-18 16:34 35.786340 -115.267689 26 9642ft 181kts
03-Oct-18 16:35 35.827710 -115.242815 26 8928ft 160kts
03-Oct-18 16:36 35.867365 -115.218956 26 8226ft 157kts
03-Oct-18 16:37 35.906478 -115.195409 26 7526ft 156kts
03-Oct-18 16:38 35.941277 -115.176116 5 7086ft 107kts
03-Oct-18 16:39 35.970462 -115.187519 339 6633ft 108kts
03-Oct-18 16:40 36.001135 -115.184111 26 5935ft 122kts
03-Oct-18 16:41 36.030466 -115.166422 26 5198ft 92kts
03-Oct-18 16:42 36.050271 -115.154467 26 4427ft 90kts
03-Oct-18 16:43 36.075058 -115.139500 26 3552ft 103kts
03-Oct-18 16:44 36.099295 -115.125172 17 3254ft 99kts
03-Oct-18 16:45 36.113995 -115.144674 271 2872ft 77kts
03-Oct-18 16:46 36.096991 -115.157940 204 2098ft 64kts
03-Oct-18 16:47 36.089244 -115.162930 271 2128ft 11kts
03-Oct-18 16:48 36.089702 -115.164603 244 2133ft 6kts
03-Oct-18 16:49 36.086864 -115.166157 204 2145ft 14kts
03-Oct-18 16:50 36.082995 -115.168368 204 2161ft 12kts
03-Oct-18 16:51 36.081377 -115.170665 233 2169ft 9kts
03-Oct-18 16:52 36.080949 -115.170935 199 2170ft 0kts
03-Oct-18 16:53 36.080949 -115.170935 199 2170ft 0kts
03-Oct-18 16:54 36.080949 -115.170935 199 2170ft 0kts

Navigation Log

Ident Type
Flight plan parsing failed, navigation log unavailable